sensor_id;sensor_type;location;lat;lon;timestamp;pressure;altitude;pressure_sealevel;temperature;humidity
23253;BME280;11795;47.054;15.408;2023-05-22T00:00:00;97310;;;15.9;76.1
23253;BME280;11795;47.054;15.408;2023-05-22T00:02:01;97300;;;16.1;75.6
23253;BME280;11795;47.054;15.408;2023-05-22T00:04:01;97300;;;15.9;76.0
23253;BME280;11795;47.054;15.408;2023-05-22T00:06:00;97310;;;15.9;76.2
23253;BME280;11795;47.054;15.408;2023-05-22T00:08:00;97300;;;15.9;75.9
23253;BME280;11795;47.054;15.408;2023-05-22T00:10:00;97300;;;15.8;76.6
23253;BME280;11795;47.054;15.408;2023-05-22T00:12:00;97300;;;15.9;76.5
23253;BME280;11795;47.054;15.408;2023-05-22T00:14:00;97300;;;15.7;77.0
23253;BME280;11795;47.054;15.408;2023-05-22T00:16:00;97300;;;15.6;77.3
23253;BME280;11795;47.054;15.408;2023-05-22T00:18:00;97300;;;15.6;77.2
23253;BME280;11795;47.054;15.408;2023-05-22T00:20:07;97300;;;15.5;77.9
23253;BME280;11795;47.054;15.408;2023-05-22T00:22:00;97300;;;15.7;77.3
23253;BME280;11795;47.054;15.408;2023-05-22T00:24:03;97290;;;15.5;77.9
23253;BME280;11795;47.054;15.408;2023-05-22T00:26:00;97290;;;15.5;78.3
23253;BME280;11795;47.054;15.408;2023-05-22T00:28:00;97290;;;15.6;77.6
23253;BME280;11795;47.054;15.408;2023-05-22T00:30:00;97290;;;15.6;77.9
23253;BME280;11795;47.054;15.408;2023-05-22T00:32:00;97290;;;15.7;77.3
23253;BME280;11795;47.054;15.408;2023-05-22T00:34:00;97290;;;15.5;77.8
23253;BME280;11795;47.054;15.408;2023-05-22T00:36:00;97290;;;15.5;77.8
23253;BME280;11795;47.054;15.408;2023-05-22T00:38:02;97280;;;15.6;77.3
23253;BME280;11795;47.054;15.408;2023-05-22T00:40:00;97280;;;15.5;77.7
23253;BME280;11795;47.054;15.408;2023-05-22T00:42:00;97270;;;15.6;77.4
23253;BME280;11795;47.054;15.408;2023-05-22T00:44:00;97270;;;15.4;78.0
23253;BME280;11795;47.054;15.408;2023-05-22T00:46:00;97270;;;15.3;78.7
23253;BME280;11795;47.054;15.408;2023-05-22T00:48:00;97270;;;15.4;78.2
23253;BME280;11795;47.054;15.408;2023-05-22T00:50:00;97270;;;15.3;78.8
23253;BME280;11795;47.054;15.408;2023-05-22T00:52:01;97270;;;15.5;77.9
23253;BME280;11795;47.054;15.408;2023-05-22T00:54:00;97270;;;15.3;78.5
23253;BME280;11795;47.054;15.408;2023-05-22T00:56:01;97270;;;15.3;78.8
23253;BME280;11795;47.054;15.408;2023-05-22T00:58:02;97270;;;15.4;78.1
23253;BME280;11795;47.054;15.408;2023-05-22T01:00:02;97270;;;15.3;78.6
23253;BME280;11795;47.054;15.408;2023-05-22T01:02:00;97260;;;15.5;77.8
23253;BME280;11795;47.054;15.408;2023-05-22T01:04:01;97260;;;15.4;78.1
23253;BME280;11795;47.054;15.408;2023-05-22T01:06:00;97260;;;15.3;78.5
23253;BME280;11795;47.054;15.408;2023-05-22T01:08:00;97260;;;15.4;77.9
23253;BME280;11795;47.054;15.408;2023-05-22T01:10:00;97260;;;15.3;78.6
23253;BME280;11795;47.054;15.408;2023-05-22T01:12:12;97260;;;15.5;77.9
23253;BME280;11795;47.054;15.408;2023-05-22T01:14:05;97260;;;15.3;78.1
23253;BME280;11795;47.054;15.408;2023-05-22T01:16:04;97260;;;15.2;78.6
23253;BME280;11795;47.054;15.408;2023-05-22T01:18:06;97270;;;15.3;78.4
23253;BME280;11795;47.054;15.408;2023-05-22T01:20:10;97300;;;15.2;79.2
23253;BME280;11795;47.054;15.408;2023-05-22T01:22:12;97300;;;15.3;80.5
23253;BME280;11795;47.054;15.408;2023-05-22T01:24:14;97290;;;15.1;82.4
23253;BME280;11795;47.054;15.408;2023-05-22T01:26:12;97300;;;15.1;83.2
23253;BME280;11795;47.054;15.408;2023-05-22T01:28:08;97310;;;15.2;83.2
23253;BME280;11795;47.054;15.408;2023-05-22T01:30:14;97290;;;15.2;83.9
23253;BME280;11795;47.054;15.408;2023-05-22T01:32:01;97290;;;15.3;83.9
23253;BME280;11795;47.054;15.408;2023-05-22T01:34:01;97290;;;15.2;84.5
23253;BME280;11795;47.054;15.408;2023-05-22T01:36:01;97290;;;15.1;85.0
23253;BME280;11795;47.054;15.408;2023-05-22T01:38:01;97280;;;15.2;84.6
23253;BME280;11795;47.054;15.408;2023-05-22T01:40:01;97280;;;15.1;85.3
23253;BME280;11795;47.054;15.408;2023-05-22T01:42:01;97280;;;15.3;84.9
23253;BME280;11795;47.054;15.408;2023-05-22T01:44:01;97280;;;15.2;85.1
23253;BME280;11795;47.054;15.408;2023-05-22T01:46:00;97280;;;15.2;85.4
23253;BME280;11795;47.054;15.408;2023-05-22T01:48:00;97280;;;15.3;85.0
23253;BME280;11795;47.054;15.408;2023-05-22T01:50:00;97280;;;15.2;85.5
23253;BME280;11795;47.054;15.408;2023-05-22T01:52:06;97280;;;15.4;85.1
23253;BME280;11795;47.054;15.408;2023-05-22T01:54:07;97280;;;15.3;85.5
23253;BME280;11795;47.054;15.408;2023-05-22T01:56:02;97280;;;15.2;85.9
23253;BME280;11795;47.054;15.408;2023-05-22T01:58:10;97280;;;15.4;85.2
23253;BME280;11795;47.054;15.408;2023-05-22T02:00:05;97280;;;15.3;85.7
23253;BME280;11795;47.054;15.408;2023-05-22T02:02:04;97280;;;15.5;85.0
23253;BME280;11795;47.054;15.408;2023-05-22T02:04:01;97280;;;15.3;85.2
23253;BME280;11795;47.054;15.408;2023-05-22T02:06:04;97280;;;15.3;85.4
23253;BME280;11795;47.054;15.408;2023-05-22T02:08:01;97280;;;15.2;86.0
23253;BME280;11795;47.054;15.408;2023-05-22T02:10:02;97270;;;15.1;86.9
23253;BME280;11795;47.054;15.408;2023-05-22T02:12:01;97270;;;15.3;85.8
23253;BME280;11795;47.054;15.408;2023-05-22T02:14:01;97260;;;15.2;86.0
23253;BME280;11795;47.054;15.408;2023-05-22T02:16:01;97260;;;15.1;86.1
23253;BME280;11795;47.054;15.408;2023-05-22T02:18:01;97270;;;15.3;85.2
23253;BME280;11795;47.054;15.408;2023-05-22T02:20:00;97270;;;15.2;85.6
23253;BME280;11795;47.054;15.408;2023-05-22T02:22:00;97260;;;15.4;84.9
23253;BME280;11795;47.054;15.408;2023-05-22T02:24:01;97260;;;15.3;84.6
23253;BME280;11795;47.054;15.408;2023-05-22T02:26:00;97250;;;15.2;85.0
23253;BME280;11795;47.054;15.408;2023-05-22T02:28:00;97250;;;15.3;84.6
23253;BME280;11795;47.054;15.408;2023-05-22T02:30:00;97250;;;15.2;85.1
23253;BME280;11795;47.054;15.408;2023-05-22T02:32:00;97250;;;15.4;84.5
23253;BME280;11795;47.054;15.408;2023-05-22T02:34:00;97250;;;15.3;84.6
23253;BME280;11795;47.054;15.408;2023-05-22T02:36:00;97250;;;15.2;84.8
23253;BME280;11795;47.054;15.408;2023-05-22T02:38:00;97250;;;15.4;84.0
23253;BME280;11795;47.054;15.408;2023-05-22T02:40:00;97250;;;15.2;84.5
23253;BME280;11795;47.054;15.408;2023-05-22T02:42:00;97250;;;15.4;84.1
23253;BME280;11795;47.054;15.408;2023-05-22T02:44:00;97250;;;15.2;84.2
23253;BME280;11795;47.054;15.408;2023-05-22T02:46:00;97250;;;15.1;84.8
23253;BME280;11795;47.054;15.408;2023-05-22T02:48:02;97240;;;15.2;84.3
23253;BME280;11795;47.054;15.408;2023-05-22T02:50:00;97240;;;15.1;84.8
23253;BME280;11795;47.054;15.408;2023-05-22T02:52:00;97240;;;15.3;83.9
23253;BME280;11795;47.054;15.408;2023-05-22T02:54:00;97240;;;15.2;83.4
23253;BME280;11795;47.054;15.408;2023-05-22T02:56:00;97240;;;15.1;83.8
23253;BME280;11795;47.054;15.408;2023-05-22T02:58:00;97240;;;15.1;83.6
23253;BME280;11795;47.054;15.408;2023-05-22T03:00:00;97250;;;14.9;84.4
23253;BME280;11795;47.054;15.408;2023-05-22T03:02:00;97250;;;15.1;84.7
23253;BME280;11795;47.054;15.408;2023-05-22T03:04:00;97250;;;14.9;85.1
23253;BME280;11795;47.054;15.408;2023-05-22T03:06:01;97250;;;14.9;85.4
23253;BME280;11795;47.054;15.408;2023-05-22T03:08:00;97260;;;15.0;84.5
23253;BME280;11795;47.054;15.408;2023-05-22T03:10:00;97260;;;15.0;84.7
23253;BME280;11795;47.054;15.408;2023-05-22T03:12:00;97260;;;15.1;84.4
23253;BME280;11795;47.054;15.408;2023-05-22T03:14:00;97250;;;15.0;84.2
23253;BME280;11795;47.054;15.408;2023-05-22T03:16:00;97250;;;14.8;84.8
23253;BME280;11795;47.054;15.408;2023-05-22T03:18:01;97250;;;14.9;84.5
23253;BME280;11795;47.054;15.408;2023-05-22T03:20:00;97250;;;14.8;85.0
23253;BME280;11795;47.054;15.408;2023-05-22T03:22:00;97250;;;14.9;84.7
23253;BME280;11795;47.054;15.408;2023-05-22T03:24:00;97250;;;14.8;84.6
23253;BME280;11795;47.054;15.408;2023-05-22T03:26:00;97250;;;14.7;85.2
23253;BME280;11795;47.054;15.408;2023-05-22T03:28:00;97240;;;14.8;84.7
23253;BME280;11795;47.054;15.408;2023-05-22T03:30:00;97250;;;14.7;85.3
23253;BME280;11795;47.054;15.408;2023-05-22T03:32:02;97240;;;14.9;84.8
23253;BME280;11795;47.054;15.408;2023-05-22T03:34:00;97250;;;14.8;84.7
23253;BME280;11795;47.054;15.408;2023-05-22T03:36:00;97250;;;14.7;85.3
23253;BME280;11795;47.054;15.408;2023-05-22T03:38:00;97240;;;14.9;84.5
23253;BME280;11795;47.054;15.408;2023-05-22T03:40:00;97240;;;14.8;85.2
23253;BME280;11795;47.054;15.408;2023-05-22T03:42:00;97240;;;15.0;84.9
23253;BME280;11795;47.054;15.408;2023-05-22T03:44:02;97230;;;14.9;85.0
23253;BME280;11795;47.054;15.408;2023-05-22T03:46:00;97230;;;14.8;85.1
23253;BME280;11795;47.054;15.408;2023-05-22T03:48:00;97230;;;15.0;84.2
23253;BME280;11795;47.054;15.408;2023-05-22T03:50:00;97230;;;14.9;84.7
23253;BME280;11795;47.054;15.408;2023-05-22T03:52:01;97230;;;15.0;84.7
23253;BME280;11795;47.054;15.408;2023-05-22T03:54:00;97230;;;14.9;85.0
23253;BME280;11795;47.054;15.408;2023-05-22T03:56:00;97230;;;14.7;85.9
23253;BME280;11795;47.054;15.408;2023-05-22T03:58:00;97230;;;14.9;85.2
23253;BME280;11795;47.054;15.408;2023-05-22T04:00:09;97230;;;14.8;85.8
23253;BME280;11795;47.054;15.408;2023-05-22T04:02:00;97230;;;15.0;85.4
23253;BME280;11795;47.054;15.408;2023-05-22T04:04:01;97230;;;14.9;85.3
23253;BME280;11795;47.054;15.408;2023-05-22T04:06:00;97240;;;14.9;85.7
23253;BME280;11795;47.054;15.408;2023-05-22T04:08:00;97240;;;15.1;84.8
23253;BME280;11795;47.054;15.408;2023-05-22T04:10:00;97240;;;15.0;85.2
23253;BME280;11795;47.054;15.408;2023-05-22T04:12:00;97240;;;15.1;85.1
23253;BME280;11795;47.054;15.408;2023-05-22T04:14:02;97240;;;15.1;84.3
23253;BME280;11795;47.054;15.408;2023-05-22T04:16:01;97240;;;15.1;84.5
23253;BME280;11795;47.054;15.408;2023-05-22T04:18:00;97240;;;15.2;83.9
23253;BME280;11795;47.054;15.408;2023-05-22T04:20:00;97240;;;15.1;84.3
23253;BME280;11795;47.054;15.408;2023-05-22T04:22:00;97240;;;15.2;84.4
23253;BME280;11795;47.054;15.408;2023-05-22T04:24:01;97240;;;15.2;84.6
23253;BME280;11795;47.054;15.408;2023-05-22T04:26:01;97240;;;15.1;85.2
23253;BME280;11795;47.054;15.408;2023-05-22T04:28:02;97240;;;15.3;84.9
23253;BME280;11795;47.054;15.408;2023-05-22T04:30:02;97240;;;15.2;85.5
23253;BME280;11795;47.054;15.408;2023-05-22T04:32:00;97240;;;15.4;85.6
23253;BME280;11795;47.054;15.408;2023-05-22T04:34:01;97240;;;15.3;85.7
23253;BME280;11795;47.054;15.408;2023-05-22T04:36:01;97240;;;15.3;86.4
23253;BME280;11795;47.054;15.408;2023-05-22T04:38:01;97240;;;15.5;85.8
23253;BME280;11795;47.054;15.408;2023-05-22T04:40:11;97240;;;15.4;86.4
23253;BME280;11795;47.054;15.408;2023-05-22T04:42:04;97240;;;15.5;86.6
23253;BME280;11795;47.054;15.408;2023-05-22T04:44:03;97240;;;15.5;86.4
23253;BME280;11795;47.054;15.408;2023-05-22T04:46:00;97240;;;15.5;86.6
23253;BME280;11795;47.054;15.408;2023-05-22T04:48:01;97240;;;15.8;85.8
23253;BME280;11795;47.054;15.408;2023-05-22T04:50:01;97250;;;15.7;86.2
23253;BME280;11795;47.054;15.408;2023-05-22T04:52:04;97250;;;15.9;85.6
23253;BME280;11795;47.054;15.408;2023-05-22T04:54:00;97250;;;16.0;84.9
23253;BME280;11795;47.054;15.408;2023-05-22T04:56:00;97250;;;15.9;84.6
23253;BME280;11795;47.054;15.408;2023-05-22T04:58:00;97250;;;16.1;84.1
23253;BME280;11795;47.054;15.408;2023-05-22T05:00:00;97250;;;16.1;84.4
23253;BME280;11795;47.054;15.408;2023-05-22T05:02:00;97250;;;16.3;84.2
23253;BME280;11795;47.054;15.408;2023-05-22T05:04:01;97250;;;16.4;83.7
23253;BME280;11795;47.054;15.408;2023-05-22T05:06:00;97250;;;16.5;83.7
23253;BME280;11795;47.054;15.408;2023-05-22T05:08:00;97250;;;16.7;82.8
23253;BME280;11795;47.054;15.408;2023-05-22T05:10:00;97250;;;16.7;82.7
23253;BME280;11795;47.054;15.408;2023-05-22T05:12:01;97250;;;16.8;82.5
23253;BME280;11795;47.054;15.408;2023-05-22T05:14:00;97260;;;17.0;80.4
23253;BME280;11795;47.054;15.408;2023-05-22T05:16:00;97260;;;17.0;80.3
23253;BME280;11795;47.054;15.408;2023-05-22T05:18:00;97260;;;17.1;79.9
23253;BME280;11795;47.054;15.408;2023-05-22T05:20:01;97260;;;17.1;80.0
23253;BME280;11795;47.054;15.408;2023-05-22T05:22:00;97260;;;17.2;79.7
23253;BME280;11795;47.054;15.408;2023-05-22T05:24:01;97270;;;17.4;79.2
23253;BME280;11795;47.054;15.408;2023-05-22T05:26:00;97270;;;17.4;78.6
23253;BME280;11795;47.054;15.408;2023-05-22T05:28:00;97270;;;17.7;77.8
23253;BME280;11795;47.054;15.408;2023-05-22T05:30:00;97260;;;17.7;77.4
23253;BME280;11795;47.054;15.408;2023-05-22T05:32:00;97260;;;17.8;77.6
23253;BME280;11795;47.054;15.408;2023-05-22T05:34:00;97260;;;18.0;76.7
23253;BME280;11795;47.054;15.408;2023-05-22T05:36:00;97260;;;18.0;76.2
23253;BME280;11795;47.054;15.408;2023-05-22T05:38:00;97260;;;18.2;73.6
23253;BME280;11795;47.054;15.408;2023-05-22T05:40:00;97260;;;18.3;73.7
23253;BME280;11795;47.054;15.408;2023-05-22T05:42:00;97260;;;18.4;73.3
23253;BME280;11795;47.054;15.408;2023-05-22T05:44:00;97260;;;18.6;72.1
23253;BME280;11795;47.054;15.408;2023-05-22T05:46:00;97270;;;18.6;71.2
23253;BME280;11795;47.054;15.408;2023-05-22T05:48:00;97260;;;18.9;71.2
23253;BME280;11795;47.054;15.408;2023-05-22T05:50:00;97270;;;18.9;71.4
23253;BME280;11795;47.054;15.408;2023-05-22T05:52:00;97270;;;19.0;71.5
23253;BME280;11795;47.054;15.408;2023-05-22T05:54:00;97260;;;19.2;70.4
23253;BME280;11795;47.054;15.408;2023-05-22T05:56:00;97260;;;19.3;70.4
23253;BME280;11795;47.054;15.408;2023-05-22T05:58:00;97260;;;19.5;69.5
23253;BME280;11795;47.054;15.408;2023-05-22T06:00:00;97250;;;19.5;68.8
23253;BME280;11795;47.054;15.408;2023-05-22T06:02:00;97250;;;19.6;69.0
23253;BME280;11795;47.054;15.408;2023-05-22T06:04:02;97250;;;19.8;67.5
23253;BME280;11795;47.054;15.408;2023-05-22T06:06:02;97250;;;19.8;67.5
23253;BME280;11795;47.054;15.408;2023-05-22T06:08:00;97250;;;20.1;66.8
23253;BME280;11795;47.054;15.408;2023-05-22T06:10:00;97240;;;20.1;67.1
23253;BME280;11795;47.054;15.408;2023-05-22T06:12:00;97240;;;20.2;67.0
23253;BME280;11795;47.054;15.408;2023-05-22T06:14:04;97250;;;20.4;66.2
23253;BME280;11795;47.054;15.408;2023-05-22T06:16:00;97240;;;20.4;66.3
23253;BME280;11795;47.054;15.408;2023-05-22T06:18:01;97250;;;20.6;64.8
23253;BME280;11795;47.054;15.408;2023-05-22T06:20:00;97250;;;20.6;64.3
23253;BME280;11795;47.054;15.408;2023-05-22T06:22:00;97250;;;20.7;64.3
23253;BME280;11795;47.054;15.408;2023-05-22T06:24:00;97250;;;20.9;63.9
23253;BME280;11795;47.054;15.408;2023-05-22T06:26:00;97250;;;20.9;62.8
23253;BME280;11795;47.054;15.408;2023-05-22T06:28:00;97250;;;21.2;62.2
23253;BME280;11795;47.054;15.408;2023-05-22T06:30:01;97250;;;21.2;62.4
23253;BME280;11795;47.054;15.408;2023-05-22T06:32:00;97250;;;21.2;62.2
23253;BME280;11795;47.054;15.408;2023-05-22T06:34:00;97250;;;21.5;61.2
23253;BME280;11795;47.054;15.408;2023-05-22T06:36:00;97250;;;21.5;60.1
23253;BME280;11795;47.054;15.408;2023-05-22T06:38:01;97250;;;21.8;60.1
23253;BME280;11795;47.054;15.408;2023-05-22T06:40:00;97250;;;21.8;60.0
23253;BME280;11795;47.054;15.408;2023-05-22T06:42:00;97250;;;21.9;57.4
23253;BME280;11795;47.054;15.408;2023-05-22T06:44:01;97250;;;22.0;56.7
23253;BME280;11795;47.054;15.408;2023-05-22T06:46:00;97250;;;22.0;56.1
23253;BME280;11795;47.054;15.408;2023-05-22T06:48:00;97250;;;22.3;55.9
23253;BME280;11795;47.054;15.408;2023-05-22T06:50:00;97250;;;22.2;55.7
23253;BME280;11795;47.054;15.408;2023-05-22T06:52:00;97260;;;22.3;55.2
23253;BME280;11795;47.054;15.408;2023-05-22T06:54:02;97260;;;22.5;55.0
23253;BME280;11795;47.054;15.408;2023-05-22T06:56:00;97260;;;22.5;54.7
23253;BME280;11795;47.054;15.408;2023-05-22T06:58:01;97260;;;22.6;52.5
23253;BME280;11795;47.054;15.408;2023-05-22T07:00:00;97260;;;22.5;53.6
23253;BME280;11795;47.054;15.408;2023-05-22T07:02:00;97250;;;22.6;55.1
23253;BME280;11795;47.054;15.408;2023-05-22T07:04:01;97250;;;22.8;53.8
23253;BME280;11795;47.054;15.408;2023-05-22T07:06:01;97250;;;22.9;54.7
23253;BME280;11795;47.054;15.408;2023-05-22T07:08:00;97250;;;23.2;53.7
23253;BME280;11795;47.054;15.408;2023-05-22T07:10:00;97250;;;23.2;54.3
23253;BME280;11795;47.054;15.408;2023-05-22T07:12:00;97240;;;23.3;53.0
23253;BME280;11795;47.054;15.408;2023-05-22T07:14:00;97240;;;23.6;53.5
23253;BME280;11795;47.054;15.408;2023-05-22T07:16:00;97250;;;23.5;51.3
23253;BME280;11795;47.054;15.408;2023-05-22T07:18:00;97250;;;23.4;51.9
23253;BME280;11795;47.054;15.408;2023-05-22T07:20:00;97250;;;23.2;51.2
23253;BME280;11795;47.054;15.408;2023-05-22T07:22:00;97250;;;23.0;52.0
23253;BME280;11795;47.054;15.408;2023-05-22T07:24:07;97250;;;23.2;51.1
23253;BME280;11795;47.054;15.408;2023-05-22T07:26:00;97250;;;23.2;51.6
23253;BME280;11795;47.054;15.408;2023-05-22T07:28:03;97250;;;23.4;50.3
23253;BME280;11795;47.054;15.408;2023-05-22T07:30:00;97240;;;23.4;49.8
23253;BME280;11795;47.054;15.408;2023-05-22T07:32:00;97240;;;23.5;49.7
23253;BME280;11795;47.054;15.408;2023-05-22T07:34:00;97240;;;23.8;50.2
23253;BME280;11795;47.054;15.408;2023-05-22T07:36:00;97240;;;23.8;50.7
23253;BME280;11795;47.054;15.408;2023-05-22T07:38:00;97240;;;24.1;51.0
23253;BME280;11795;47.054;15.408;2023-05-22T07:40:01;97240;;;24.2;50.0
23253;BME280;11795;47.054;15.408;2023-05-22T07:42:00;97240;;;24.2;48.9
23253;BME280;11795;47.054;15.408;2023-05-22T07:44:00;97240;;;24.4;48.9
23253;BME280;11795;47.054;15.408;2023-05-22T07:46:00;97240;;;24.4;49.1
23253;BME280;11795;47.054;15.408;2023-05-22T07:48:02;97240;;;24.7;48.7
23253;BME280;11795;47.054;15.408;2023-05-22T07:50:04;97240;;;24.7;49.4
23253;BME280;11795;47.054;15.408;2023-05-22T07:52:00;97240;;;24.8;48.5
23253;BME280;11795;47.054;15.408;2023-05-22T07:54:00;97250;;;24.8;47.5
23253;BME280;11795;47.054;15.408;2023-05-22T07:56:00;97240;;;24.5;47.6
23253;BME280;11795;47.054;15.408;2023-05-22T07:58:03;97250;;;24.8;47.9
23253;BME280;11795;47.054;15.408;2023-05-22T08:00:06;97240;;;24.8;47.2
23253;BME280;11795;47.054;15.408;2023-05-22T08:02:00;97240;;;24.8;47.7
23253;BME280;11795;47.054;15.408;2023-05-22T08:04:00;97240;;;25.1;46.9
23253;BME280;11795;47.054;15.408;2023-05-22T08:06:01;97240;;;24.8;46.5
23253;BME280;11795;47.054;15.408;2023-05-22T08:08:02;97240;;;25.1;46.3
23253;BME280;11795;47.054;15.408;2023-05-22T08:10:02;97240;;;25.1;46.1
23253;BME280;11795;47.054;15.408;2023-05-22T08:12:00;97240;;;25.2;46.0
23253;BME280;11795;47.054;15.408;2023-05-22T08:14:00;97240;;;25.5;46.9
23253;BME280;11795;47.054;15.408;2023-05-22T08:16:00;97240;;;25.7;46.7
23253;BME280;11795;47.054;15.408;2023-05-22T08:18:00;97240;;;26.0;46.2
23253;BME280;11795;47.054;15.408;2023-05-22T08:20:00;97230;;;26.1;46.1
23253;BME280;11795;47.054;15.408;2023-05-22T08:22:00;97230;;;26.2;45.3
23253;BME280;11795;47.054;15.408;2023-05-22T08:24:01;97230;;;26.5;44.0
23253;BME280;11795;47.054;15.408;2023-05-22T08:26:00;97230;;;26.4;43.0
23253;BME280;11795;47.054;15.408;2023-05-22T08:28:00;97230;;;26.3;43.1
23253;BME280;11795;47.054;15.408;2023-05-22T08:30:00;97230;;;26.0;43.1
23253;BME280;11795;47.054;15.408;2023-05-22T08:32:00;97220;;;25.8;44.0
23253;BME280;11795;47.054;15.408;2023-05-22T08:34:01;97220;;;26.1;44.5
23253;BME280;11795;47.054;15.408;2023-05-22T08:36:00;97220;;;26.1;43.3
23253;BME280;11795;47.054;15.408;2023-05-22T08:38:00;97220;;;26.2;44.0
23253;BME280;11795;47.054;15.408;2023-05-22T08:40:00;97220;;;26.2;43.5
23253;BME280;11795;47.054;15.408;2023-05-22T08:42:03;97220;;;26.1;43.5
23253;BME280;11795;47.054;15.408;2023-05-22T08:44:00;97220;;;26.2;43.6
23253;BME280;11795;47.054;15.408;2023-05-22T08:46:02;97220;;;26.1;43.3
23253;BME280;11795;47.054;15.408;2023-05-22T08:48:03;97220;;;26.2;43.6
23253;BME280;11795;47.054;15.408;2023-05-22T08:50:00;97220;;;26.3;44.5
23253;BME280;11795;47.054;15.408;2023-05-22T08:52:11;97220;;;26.4;44.5
23253;BME280;11795;47.054;15.408;2023-05-22T08:54:03;97230;;;26.6;43.4
23253;BME280;11795;47.054;15.408;2023-05-22T08:56:01;97220;;;26.7;43.5
23253;BME280;11795;47.054;15.408;2023-05-22T08:58:00;97220;;;26.7;42.9
23253;BME280;11795;47.054;15.408;2023-05-22T09:00:01;97220;;;26.4;43.5
23253;BME280;11795;47.054;15.408;2023-05-22T09:02:00;97220;;;26.0;45.1
23253;BME280;11795;47.054;15.408;2023-05-22T09:04:01;97210;;;25.9;44.5
23253;BME280;11795;47.054;15.408;2023-05-22T09:06:01;97220;;;26.0;44.9
23253;BME280;11795;47.054;15.408;2023-05-22T09:08:02;97210;;;26.2;44.8
23253;BME280;11795;47.054;15.408;2023-05-22T09:10:05;97210;;;26.4;44.9
23253;BME280;11795;47.054;15.408;2023-05-22T09:12:00;97210;;;26.6;43.6
23253;BME280;11795;47.054;15.408;2023-05-22T09:14:09;97210;;;26.9;43.1
23253;BME280;11795;47.054;15.408;2023-05-22T09:16:07;97210;;;27.0;41.4
23253;BME280;11795;47.054;15.408;2023-05-22T09:18:02;97210;;;27.0;40.5
23253;BME280;11795;47.054;15.408;2023-05-22T09:20:01;97210;;;27.1;40.3
23253;BME280;11795;47.054;15.408;2023-05-22T09:22:02;97210;;;26.8;42.0
23253;BME280;11795;47.054;15.408;2023-05-22T09:24:00;97210;;;27.1;41.2
23253;BME280;11795;47.054;15.408;2023-05-22T09:26:01;97200;;;27.0;42.3
23253;BME280;11795;47.054;15.408;2023-05-22T09:28:00;97200;;;27.2;42.0
23253;BME280;11795;47.054;15.408;2023-05-22T09:30:00;97210;;;27.3;40.8
23253;BME280;11795;47.054;15.408;2023-05-22T09:32:00;97210;;;26.9;39.6
23253;BME280;11795;47.054;15.408;2023-05-22T09:34:00;97210;;;27.1;39.4
23253;BME280;11795;47.054;15.408;2023-05-22T09:36:00;97210;;;26.9;39.1
23253;BME280;11795;47.054;15.408;2023-05-22T09:38:00;97210;;;27.2;39.7
23253;BME280;11795;47.054;15.408;2023-05-22T09:40:04;97210;;;27.3;39.4
23253;BME280;11795;47.054;15.408;2023-05-22T09:42:00;97210;;;27.4;39.6
23253;BME280;11795;47.054;15.408;2023-05-22T09:44:00;97210;;;27.4;38.7
23253;BME280;11795;47.054;15.408;2023-05-22T09:46:00;97210;;;27.1;39.7
23253;BME280;11795;47.054;15.408;2023-05-22T09:48:00;97210;;;26.9;39.7
23253;BME280;11795;47.054;15.408;2023-05-22T09:50:02;97200;;;27.0;40.0
23253;BME280;11795;47.054;15.408;2023-05-22T09:52:03;97210;;;26.9;39.6
23253;BME280;11795;47.054;15.408;2023-05-22T09:54:02;97200;;;27.0;39.6
23253;BME280;11795;47.054;15.408;2023-05-22T09:56:01;97200;;;27.2;40.9
23253;BME280;11795;47.054;15.408;2023-05-22T09:58:02;97200;;;27.4;36.6
23253;BME280;11795;47.054;15.408;2023-05-22T10:00:03;97200;;;27.4;37.5
23253;BME280;11795;47.054;15.408;2023-05-22T10:02:01;97200;;;27.5;37.9
23253;BME280;11795;47.054;15.408;2023-05-22T10:04:01;97200;;;27.5;38.2
23253;BME280;11795;47.054;15.408;2023-05-22T10:06:00;97200;;;27.4;38.5
23253;BME280;11795;47.054;15.408;2023-05-22T10:08:04;97190;;;27.5;38.8
23253;BME280;11795;47.054;15.408;2023-05-22T10:10:03;97190;;;27.7;39.5
23253;BME280;11795;47.054;15.408;2023-05-22T10:12:05;97190;;;27.9;38.2
23253;BME280;11795;47.054;15.408;2023-05-22T10:14:01;97190;;;27.8;37.8
23253;BME280;11795;47.054;15.408;2023-05-22T10:16:00;97190;;;27.6;36.1
23253;BME280;11795;47.054;15.408;2023-05-22T10:18:00;97190;;;27.4;36.7
23253;BME280;11795;47.054;15.408;2023-05-22T10:20:01;97190;;;27.4;37.9
23253;BME280;11795;47.054;15.408;2023-05-22T10:22:01;97190;;;27.5;37.8
23253;BME280;11795;47.054;15.408;2023-05-22T10:24:00;97180;;;27.5;36.4
23253;BME280;11795;47.054;15.408;2023-05-22T10:26:00;97180;;;27.6;36.7
23253;BME280;11795;47.054;15.408;2023-05-22T10:28:01;97180;;;27.6;35.8
23253;BME280;11795;47.054;15.408;2023-05-22T10:30:12;97180;;;27.6;35.5
23253;BME280;11795;47.054;15.408;2023-05-22T10:32:05;97190;;;27.6;35.6
23253;BME280;11795;47.054;15.408;2023-05-22T10:34:04;97180;;;27.6;35.9
23253;BME280;11795;47.054;15.408;2023-05-22T10:36:03;97190;;;27.5;36.5
23253;BME280;11795;47.054;15.408;2023-05-22T10:38:13;97190;;;27.4;36.9
23253;BME280;11795;47.054;15.408;2023-05-22T10:40:04;97180;;;27.4;36.2
23253;BME280;11795;47.054;15.408;2023-05-22T10:42:00;97180;;;27.3;37.4
23253;BME280;11795;47.054;15.408;2023-05-22T10:44:01;97180;;;27.7;37.1
23253;BME280;11795;47.054;15.408;2023-05-22T10:46:01;97170;;;27.8;36.9
23253;BME280;11795;47.054;15.408;2023-05-22T10:48:01;97170;;;27.6;36.5
23253;BME280;11795;47.054;15.408;2023-05-22T10:50:02;97180;;;27.7;36.9
23253;BME280;11795;47.054;15.408;2023-05-22T10:52:01;97180;;;27.6;36.7
23253;BME280;11795;47.054;15.408;2023-05-22T10:54:01;97170;;;27.7;36.8
23253;BME280;11795;47.054;15.408;2023-05-22T10:56:11;97150;;;27.8;37.0
23253;BME280;11795;47.054;15.408;2023-05-22T10:58:11;97160;;;27.7;37.6
23253;BME280;11795;47.054;15.408;2023-05-22T11:00:10;97160;;;27.9;37.3
23253;BME280;11795;47.054;15.408;2023-05-22T11:02:00;97160;;;28.0;37.2
23253;BME280;11795;47.054;15.408;2023-05-22T11:04:08;97160;;;28.2;37.6
23253;BME280;11795;47.054;15.408;2023-05-22T11:06:00;97150;;;28.2;35.7
23253;BME280;11795;47.054;15.408;2023-05-22T11:08:08;97150;;;28.3;36.6
23253;BME280;11795;47.054;15.408;2023-05-22T11:10:00;97150;;;28.5;36.5